Time;durP1;ratioP1;P1;durP2;ratioP2;P2;SDS_P1;SDS_P2;PMS_P1;PMS_P2;Temp;Humidity;BMP_temperature;BMP_pressure;BME280_temperature;BME280_humidity;BME280_pressure;Samples;Min_cycle;Max_cycle;Signal;HPM_P1;HPM_P2
2020/12/29 11:20:20;;;;;;;10.47;8.70;;;;;;;4.36;100.00;97926.44;5018593;27;1661551;-73
2020/12/29 11:22:46;;;;;;;9.93;7.97;;;;;;;4.63;100.00;97923.72;4992412;28;20191;-74
2020/12/29 11:25:17;;;;;;;8.77;7.90;;;;;;;4.87;100.00;97924.28;4993043;28;20191;-73
2020/12/29 11:27:42;;;;;;;8.83;6.77;;;;;;;5.06;100.00;97926.50;4993652;28;20254;-74
2020/12/29 11:30:10;;;;;;;9.40;7.10;;;;;;;5.12;100.00;97927.97;5016354;28;20207;-73
2020/12/29 11:32:36;;;;;;;8.20;7.40;;;;;;;5.04;100.00;97926.03;5027276;28;20176;-74
2020/12/29 11:35:02;;;;;;;7.23;6.50;;;;;;;5.04;100.00;97923.34;5007982;28;20222;-73
2020/12/29 11:37:27;;;;;;;6.30;5.67;;;;;;;5.14;100.00;97939.22;5016177;28;20719;-73
2020/12/29 11:39:53;;;;;;;7.60;6.80;;;;;;;5.14;100.00;97936.53;5000981;28;20211;-73
2020/12/29 11:42:19;;;;;;;6.87;6.23;;;;;;;5.30;100.00;97937.78;5021266;28;20746;-73
2020/12/29 11:44:45;;;;;;;7.10;5.60;;;;;;;5.04;100.00;97939.47;5042460;28;20190;-72
2020/12/29 11:47:12;;;;;;;7.50;5.47;;;;;;;5.13;100.00;97943.03;5026995;28;20225;-72
2020/12/29 11:49:38;;;;;;;6.23;5.63;;;;;;;5.20;100.00;97942.59;5024812;28;20245;-72
2020/12/29 11:52:04;;;;;;;6.43;5.50;;;;;;;5.29;100.00;97946.94;5019064;28;20629;-72
2020/12/29 11:54:32;;;;;;;7.87;5.77;;;;;;;5.18;99.06;97940.25;5019411;28;20650;-73
2020/12/29 11:57:00;;;;;;;7.27;5.90;;;;;;;5.06;100.00;97937.28;5013582;28;20223;-74
2020/12/29 11:59:28;;;;;;;6.60;5.80;;;;;;;5.39;99.50;97939.44;5017942;28;20281;-74
2020/12/29 12:01:56;;;;;;;9.13;5.83;;;;;;;5.36;99.72;97936.56;5011633;28;20724;-73
2020/12/29 12:04:22;;;;;;;7.83;6.20;;;;;;;5.32;98.30;97946.34;5001488;28;20188;-74
2020/12/29 12:06:48;;;;;;;7.50;5.90;;;;;;;5.02;99.84;97936.28;5003485;28;20234;-72
2020/12/29 12:09:16;;;;;;;6.60;5.90;;;;;;;5.12;100.00;97951.41;4984944;28;20617;-73
2020/12/29 12:11:43;;;;;;;6.43;5.83;;;;;;;5.24;99.19;97947.09;5031705;28;20220;-73
2020/12/29 12:14:08;;;;;;;6.73;6.00;;;;;;;5.22;98.44;97951.97;5016433;28;20187;-74
2020/12/29 12:16:37;;;;;;;7.10;6.10;;;;;;;5.04;99.77;97955.59;5015766;28;20238;-73
2020/12/29 12:19:06;;;;;;;6.40;5.80;;;;;;;5.26;100.00;97962.94;5015895;28;20575;-73
2020/12/29 12:21:31;;;;;;;7.67;6.00;;;;;;;5.09;99.33;97966.25;5015716;28;20607;-74
2020/12/29 12:24:02;;;;;;;6.07;5.40;;;;;;;4.98;100.00;97964.06;5032265;28;20184;-74
2020/12/29 12:26:28;;;;;;;7.90;5.67;;;;;;;5.06;98.79;97977.63;5014790;28;20346;-72
2020/12/29 12:28:54;;;;;;;6.93;5.80;;;;;;;4.78;99.99;97982.53;5027297;28;20199;-72
2020/12/29 12:31:22;;;;;;;7.27;6.17;;;;;;;4.97;98.96;97972.47;5028991;28;20215;-72
2020/12/29 12:33:50;;;;;;;6.00;5.40;;;;;;;4.95;99.95;97969.28;5042016;28;20857;-73
2020/12/29 12:36:15;;;;;;;6.70;6.00;;;;;;;5.00;98.43;97976.13;5010198;28;20224;-72
2020/12/29 12:38:44;;;;;;;6.63;5.60;;;;;;;4.97;98.37;97982.09;5022435;28;20215;-73
2020/12/29 12:41:09;;;;;;;7.37;6.57;;;;;;;5.06;98.62;97976.81;5012933;28;20719;-72
2020/12/29 12:43:35;;;;;;;9.70;7.10;;;;;;;5.09;98.32;97984.28;5002350;28;20188;-72
2020/12/29 12:46:02;;;;;;;6.93;6.00;;;;;;;5.08;98.41;97972.72;5026003;28;20744;-73
2020/12/29 12:48:30;;;;;;;7.60;5.80;;;;;;;5.00;99.18;97981.53;5057933;28;20230;-72
2020/12/29 12:50:56;;;;;;;6.83;5.60;;;;;;;5.06;98.29;97987.59;5021787;28;20229;-72
2020/12/29 12:53:24;;;;;;;6.67;5.67;;;;;;;5.15;97.68;98000.00;5040235;28;20172;-72
2020/12/29 12:55:50;;;;;;;6.87;5.57;;;;;;;5.05;97.77;98002.94;5022053;28;20298;-72
2020/12/29 12:58:15;;;;;;;8.83;7.93;;;;;;;4.93;98.94;98006.41;4995192;28;20188;-73
2020/12/29 13:00:43;;;;;;;7.47;6.20;;;;;;;4.95;98.70;97998.88;5035158;28;20222;-74
2020/12/29 13:03:10;;;;;;;7.77;6.27;;;;;;;4.94;99.09;98002.63;5010820;28;20266;-72
2020/12/29 13:05:35;;;;;;;6.73;5.73;;;;;;;4.82;99.67;98010.44;5015957;28;20258;-72
2020/12/29 13:08:02;;;;;;;6.63;5.60;;;;;;;4.69;99.61;98006.66;5020272;28;20176;-73
2020/12/29 13:10:32;;;;;;;9.17;6.13;;;;;;;4.78;100.00;98020.16;5013163;28;20232;-72
2020/12/29 13:13:00;;;;;;;6.90;6.20;;;;;;;4.78;100.00;98014.78;5032932;28;20236;-72
2020/12/29 13:15:26;;;;;;;6.53;5.80;;;;;;;4.78;100.00;98022.84;5033551;28;20231;-72
2020/12/29 13:17:51;;;;;;;7.53;5.93;;;;;;;4.84;99.86;98029.75;5000680;28;20203;-72
2020/12/29 13:20:20;;;;;;;8.90;5.73;;;;;;;4.93;98.81;98033.28;4996605;28;20224;-72
2020/12/29 13:22:51;;;;;;;8.13;6.00;;;;;;;4.97;99.65;98043.94;5002653;28;20176;-73
2020/12/29 13:25:18;;;;;;;7.43;5.47;;;;;;;5.02;99.90;98041.16;5032629;28;20203;-73
2020/12/29 13:27:43;;;;;;;6.73;5.93;;;;;;;5.11;99.10;98041.25;5005626;28;20553;-73
2020/12/29 13:30:12;;;;;;;6.53;5.70;;;;;;;5.22;98.21;98051.50;4999901;28;20582;-73
2020/12/29 13:32:38;;;;;;;7.30;5.77;;;;;;;5.24;98.16;98057.38;5002628;28;20195;-72
2020/12/29 13:35:05;;;;;;;6.13;5.50;;;;;;;5.15;98.71;98056.50;5016802;28;20285;-73
2020/12/29 13:37:31;;;;;;;6.43;5.67;;;;;;;5.16;98.50;98059.97;5018625;28;20219;-74
2020/12/29 13:40:04;;;;;;;7.00;6.00;;;;;;;5.19;98.88;98070.94;5034536;28;20220;-73
2020/12/29 13:42:29;;;;;;;6.73;5.67;;;;;;;5.11;99.44;98065.44;5034822;28;20216;-74
2020/12/29 13:44:55;;;;;;;6.27;5.60;;;;;;;5.17;98.35;98078.50;5018262;28;20187;-74
2020/12/29 13:47:21;;;;;;;6.33;5.73;;;;;;;5.18;98.79;98080.13;5000323;28;20220;-75
2020/12/29 13:49:46;;;;;;;7.23;5.83;;;;;;;5.18;98.78;98081.97;5018591;28;20199;-74
2020/12/29 13:52:14;;;;;;;6.00;5.50;;;;;;;5.25;98.49;98080.47;5018001;28;20220;-74
2020/12/29 13:54:42;;;;;;;8.03;6.70;;;;;;;5.33;97.54;98087.03;5014897;28;20181;-74
2020/12/29 13:57:08;;;;;;;6.60;6.00;;;;;;;5.31;97.63;98090.06;5024945;28;20231;-74
2020/12/29 13:59:33;;;;;;;9.00;6.17;;;;;;;5.26;98.34;98090.16;5035265;28;20218;-74
2020/12/29 14:02:02;;;;;;;7.03;6.17;;;;;;;5.26;98.04;98097.44;5051451;28;20708;-75
2020/12/29 14:04:29;;;;;;;8.77;6.10;;;;;;;5.41;97.35;98098.69;5033908;28;20712;-73
2020/12/29 14:06:58;;;;;;;6.70;6.10;;;;;;;5.28;98.39;98096.03;5032819;28;20216;-73
2020/12/29 14:09:27;;;;;;;6.87;6.17;;;;;;;5.35;98.13;98104.50;5033946;28;20641;-72
2020/12/29 14:11:56;;;;;;;7.27;6.37;;;;;;;5.25;98.21;98117.34;5013925;28;20307;-73
2020/12/29 14:14:26;;;;;;;9.50;6.90;;;;;;;5.25;98.37;98107.38;5008997;28;20198;-73
2020/12/29 14:16:52;;;;;;;10.07;7.10;;;;;;;5.22;99.43;98117.94;5000377;28;20219;-73
2020/12/29 14:19:21;;;;;;;8.50;7.10;;;;;;;5.21;99.12;98125.22;5001396;28;20207;-72
2020/12/29 14:21:52;;;;;;;9.13;8.03;;;;;;;5.08;99.19;98133.31;5051570;28;20215;-75
2020/12/29 14:24:21;;;;;;;10.40;7.83;;;;;;;5.04;99.66;98133.09;5016892;28;20191;-73
2020/12/29 14:26:47;;;;;;;10.10;7.80;;;;;;;5.12;100.00;98134.28;5017652;28;20219;-73
2020/12/29 14:29:20;;;;;;;9.63;8.20;;;;;;;5.00;100.00;98137.47;5014956;28;20231;-73
2020/12/29 14:31:49;;;;;;;10.50;8.07;;;;;;;5.17;100.00;98147.66;4984972;28;20294;-73
2020/12/29 14:34:16;;;;;;;8.90;7.40;;;;;;;5.15;99.60;98144.47;5014927;28;20242;-73
2020/12/29 14:36:42;;;;;;;11.17;8.90;;;;;;;5.18;99.79;98160.81;4979387;28;20213;-73
2020/12/29 14:39:10;;;;;;;11.00;8.97;;;;;;;5.21;100.00;98152.13;4996850;28;20278;-75
2020/12/29 14:41:37;;;;;;;10.83;8.50;;;;;;;5.22;99.35;98161.81;4996912;28;20219;-73
2020/12/29 14:44:03;;;;;;;13.80;9.13;;;;;;;5.25;99.37;98171.94;5008654;28;20195;-73
2020/12/29 14:46:33;;;;;;;11.17;9.23;;;;;;;5.10;99.38;98169.56;5014456;28;20212;-73
2020/12/29 14:49:01;;;;;;;11.43;9.20;;;;;;;5.01;99.95;98170.53;4982192;28;20306;-73
2020/12/29 14:51:28;;;;;;;10.50;9.43;;;;;;;4.94;100.00;98175.50;5013437;28;20228;-74
2020/12/29 14:53:56;;;;;;;13.33;9.70;;;;;;;5.03;99.86;98182.59;4997711;28;20646;-74
2020/12/29 14:56:34;;;;;;;11.33;9.67;;;;;;;4.96;99.99;98183.28;4996885;28;20259;-73
2020/12/29 14:59:00;;;;;;;12.47;9.97;;;;;;;5.00;100.00;98191.25;5028562;28;20212;-74
2020/12/29 15:01:26;;;;;;;12.60;10.30;;;;;;;5.04;100.00;98189.56;5015908;28;20223;-74
2020/12/29 15:03:52;;;;;;;13.03;9.53;;;;;;;5.07;100.00;98193.56;5032873;28;20179;-74
2020/12/29 15:06:28;;;;;;;13.67;11.13;;;;;;;5.05;100.00;98199.25;5000043;28;20221;-74
2020/12/29 15:08:55;;;;;;;12.40;10.30;;;;;;;4.99;100.00;98207.69;5032751;28;20218;-74
2020/12/29 15:11:21;;;;;;;16.07;11.93;;;;;;;4.98;100.00;98204.22;5017001;28;20223;-74
2020/12/29 15:13:47;;;;;;;14.93;12.43;;;;;;;5.00;99.32;98207.41;4994301;28;20180;-74
2020/12/29 15:16:12;;;;;;;14.00;12.33;;;;;;;5.04;98.62;98211.09;4996238;28;20299;-73
2020/12/29 15:18:38;;;;;;;14.63;11.57;;;;;;;4.86;99.55;98221.13;4997311;28;20265;-74
2020/12/29 15:21:06;;;;;;;15.93;12.23;;;;;;;4.88;100.00;98221.63;5023130;28;20211;-76
2020/12/29 15:23:32;;;;;;;16.33;12.63;;;;;;;4.90;100.00;98222.13;4997749;28;20204;-74
2020/12/29 15:25:59;;;;;;;17.00;14.10;;;;;;;4.89;100.00;98225.88;5013501;28;20612;-73
2020/12/29 15:28:32;;;;;;;17.53;14.20;;;;;;;4.96;100.00;98242.44;4986003;28;20257;-73
2020/12/29 15:31:01;;;;;;;18.60;14.00;;;;;;;4.98;100.00;98251.78;5015962;28;20222;-74
2020/12/29 15:33:28;;;;;;;15.87;13.47;;;;;;;4.82;100.00;98252.38;5013337;28;20180;-74
2020/12/29 15:35:54;;;;;;;17.77;14.33;;;;;;;4.71;100.00;98246.34;5012014;28;20219;-77
2020/12/29 15:38:22;;;;;;;18.00;15.20;;;;;;;4.79;100.00;98247.56;5035649;28;20191;-76
2020/12/29 15:40:47;;;;;;;20.00;15.37;;;;;;;4.75;100.00;98257.31;5016210;28;20250;-73
2020/12/29 15:43:14;;;;;;;21.57;16.50;;;;;;;4.64;100.00;98272.00;5008226;28;20550;-73
2020/12/29 15:45:39;;;;;;;17.20;15.10;;;;;;;4.69;100.00;98264.66;5031971;28;20219;-73
2020/12/29 15:48:05;;;;;;;20.13;16.70;;;;;;;4.72;100.00;98269.44;5034113;28;20172;-74
2020/12/29 15:50:31;;;;;;;19.67;15.77;;;;;;;4.77;100.00;98273.94;5015556;28;20743;-77
2020/12/29 15:53:01;;;;;;;20.30;16.63;;;;;;;4.70;100.00;98276.19;5033338;28;20186;-74
2020/12/29 15:55:29;;;;;;;20.17;17.17;;;;;;;4.77;100.00;98279.31;4995718;28;20318;-74
2020/12/29 15:57:57;;;;;;;20.93;17.63;;;;;;;4.76;100.00;98272.34;5017954;28;20195;-74
2020/12/29 16:00:23;;;;;;;20.73;17.43;;;;;;;4.76;100.00;98285.78;5000242;28;20207;-74
2020/12/29 16:02:53;;;;;;;21.20;17.13;;;;;;;4.86;100.00;98291.81;5001229;28;20187;-74
2020/12/29 16:05:19;;;;;;;22.20;17.47;;;;;;;4.78;100.00;98288.97;5007596;28;20183;-74
2020/12/29 16:07:44;;;;;;;21.73;17.57;;;;;;;4.88;100.00;98291.50;4989511;28;20193;-74
2020/12/29 16:10:16;;;;;;;21.30;16.67;;;;;;;4.67;100.00;98290.22;4995753;28;20255;-74
2020/12/29 16:12:42;;;;;;;21.40;17.43;;;;;;;4.76;100.00;98291.16;5001934;28;22219;-74
2020/12/29 16:15:10;;;;;;;18.53;16.40;;;;;;;4.80;100.00;98297.53;4986630;28;20214;-75
2020/12/29 16:17:39;;;;;;;20.97;17.47;;;;;;;4.86;100.00;98297.19;4989256;28;20272;-74
2020/12/29 16:20:07;;;;;;;22.50;16.90;;;;;;;4.77;100.00;98308.91;5015701;28;20212;-75
2020/12/29 16:22:32;;;;;;;20.30;16.57;;;;;;;4.99;100.00;98307.97;5030341;28;20657;-74
2020/12/29 16:24:58;;;;;;;20.23;16.80;;;;;;;4.89;100.00;98311.91;4996599;28;20199;-74
2020/12/29 16:27:24;;;;;;;19.87;16.60;;;;;;;4.79;100.00;98312.09;5010363;28;20273;-73
2020/12/29 16:29:51;;;;;;;21.33;16.77;;;;;;;4.88;100.00;98318.41;5003817;28;20208;-74
2020/12/29 16:32:21;;;;;;;19.70;16.23;;;;;;;4.83;100.00;98329.22;5018977;28;20227;-75
2020/12/29 16:34:47;;;;;;;21.33;17.03;;;;;;;4.81;100.00;98321.44;4986690;28;20230;-74
2020/12/29 16:37:17;;;;;;;21.47;17.53;;;;;;;4.74;100.00;98326.41;5002727;28;20605;-75
2020/12/29 16:39:48;;;;;;;22.07;17.37;;;;;;;4.81;100.00;98318.75;4989558;28;20226;-74
2020/12/29 16:42:16;;;;;;;22.40;16.73;;;;;;;4.91;100.00;98320.47;5001212;28;20245;-74
2020/12/29 16:44:46;;;;;;;20.83;17.53;;;;;;;4.79;100.00;98322.84;5033972;28;20664;-74
2020/12/29 16:47:15;;;;;;;20.57;17.27;;;;;;;4.79;100.00;98322.84;4999455;28;20583;-74
2020/12/29 16:49:40;;;;;;;20.53;16.70;;;;;;;4.78;100.00;98326.59;4992835;28;20200;-74
2020/12/29 16:52:06;;;;;;;22.00;17.30;;;;;;;4.73;100.00;98330.19;4999772;28;20215;-74
2020/12/29 16:54:33;;;;;;;20.77;17.70;;;;;;;4.74;100.00;98336.34;5018673;28;20274;-74
2020/12/29 16:57:03;;;;;;;24.60;19.57;;;;;;;4.75;100.00;98344.13;5035273;28;20212;-73
2020/12/29 16:59:28;;;;;;;27.13;18.63;;;;;;;4.91;100.00;98342.00;5003964;28;20699;-74
2020/12/29 17:01:55;;;;;;;23.03;18.20;;;;;;;4.80;100.00;98360.19;5010904;28;20248;-74
2020/12/29 17:04:20;;;;;;;23.17;17.53;;;;;;;4.87;100.00;98351.75;4997500;28;20629;-73
2020/12/29 17:06:48;;;;;;;22.80;18.40;;;;;;;4.95;100.00;98356.47;5003753;28;20719;-74
2020/12/29 17:09:14;;;;;;;22.70;18.57;;;;;;;4.94;100.00;98358.34;4999372;28;20212;-74
2020/12/29 17:11:40;;;;;;;24.17;18.03;;;;;;;4.97;100.00;98359.69;5017615;28;20215;-74
2020/12/29 17:14:08;;;;;;;20.03;16.67;;;;;;;4.90;100.00;98367.31;5050516;28;20192;-74
2020/12/29 17:16:36;;;;;;;24.10;18.40;;;;;;;4.95;100.00;98362.66;5018019;28;20216;-72
2020/12/29 17:19:01;;;;;;;23.80;18.77;;;;;;;4.86;100.00;98377.03;5018226;28;20771;-75
2020/12/29 17:21:33;;;;;;;22.60;18.30;;;;;;;5.02;100.00;98377.31;5001982;28;20220;-73
2020/12/29 17:23:59;;;;;;;22.73;18.33;;;;;;;5.04;99.63;98385.91;5018999;28;20225;-73
2020/12/29 17:26:32;;;;;;;21.70;17.43;;;;;;;4.96;99.66;98372.28;5031457;28;20227;-74
2020/12/29 17:28:59;;;;;;;23.93;17.47;;;;;;;4.87;100.00;98378.63;5019507;28;20206;-74
2020/12/29 17:31:25;;;;;;;21.27;17.37;;;;;;;4.97;100.00;98380.06;4998393;28;20289;-73
2020/12/29 17:33:51;;;;;;;20.53;17.13;;;;;;;4.91;100.00;98374.25;5034197;28;20194;-73
2020/12/29 17:36:20;;;;;;;19.97;16.97;;;;;;;4.98;100.00;98379.00;5016616;28;20215;-73
2020/12/29 17:38:49;;;;;;;30.10;26.90;;;;;;;5.02;100.00;98387.28;5015838;28;20440;-73
2020/12/29 17:41:17;;;;;;;20.37;17.83;;;;;;;5.06;99.52;98378.34;5011609;28;20234;-74
2020/12/29 17:43:46;;;;;;;20.77;16.13;;;;;;;5.07;99.17;98388.00;5035416;28;20199;-74
2020/12/29 17:46:12;;;;;;;17.57;15.23;;;;;;;4.94;99.63;98387.13;5015658;28;20651;-74
2020/12/29 17:48:40;;;;;;;19.20;15.93;;;;;;;4.84;99.91;98389.97;5050312;28;20187;-73
2020/12/29 17:51:09;;;;;;;21.17;16.20;;;;;;;4.95;99.50;98396.81;5000727;28;20310;-73
2020/12/29 17:53:38;;;;;;;21.63;15.90;;;;;;;4.89;99.57;98393.41;4997172;28;20196;-73
2020/12/29 17:56:04;;;;;;;21.80;16.53;;;;;;;4.98;99.16;98397.84;4992469;28;20216;-73
2020/12/29 17:58:29;;;;;;;20.87;16.07;;;;;;;4.99;99.33;98404.78;5030504;28;20180;-75
2020/12/29 18:01:00;;;;;;;19.73;15.07;;;;;;;4.85;99.95;98402.31;4989529;28;20302;-75
2020/12/29 18:03:27;;;;;;;20.80;16.10;;;;;;;4.80;100.00;98405.91;5018778;28;20184;-74
2020/12/29 18:05:52;;;;;;;20.17;16.17;;;;;;;4.80;100.00;98415.81;5013482;28;20717;-73
2020/12/29 18:08:18;;;;;;;21.53;16.40;;;;;;;4.81;100.00;98412.84;5018109;28;20203;-76
2020/12/29 18:10:46;;;;;;;23.37;18.77;;;;;;;4.92;100.00;98417.00;5033594;28;20765;-72
2020/12/29 18:13:12;;;;;;;20.73;17.03;;;;;;;4.76;100.00;98425.56;5035080;28;20179;-74
2020/12/29 18:15:38;;;;;;;22.47;17.53;;;;;;;4.87;100.00;98427.03;5015980;28;20226;-74
2020/12/29 18:18:07;;;;;;;23.97;18.60;;;;;;;4.80;100.00;98416.66;5033759;28;20215;-74
2020/12/29 18:20:32;;;;;;;22.77;17.53;;;;;;;4.93;100.00;98432.06;5049960;28;20760;-74
2020/12/29 18:22:58;;;;;;;23.37;18.27;;;;;;;4.95;100.00;98435.25;5005771;28;20298;-73
2020/12/29 18:25:24;;;;;;;24.03;18.40;;;;;;;4.96;100.00;98436.84;4997189;28;20718;-74
2020/12/29 18:27:52;;;;;;;22.60;17.67;;;;;;;4.97;99.79;98444.63;4999732;28;20677;-74
2020/12/29 18:30:20;;;;;;;21.17;17.27;;;;;;;4.87;100.00;98443.16;4997672;28;20295;-75
2020/12/29 18:32:50;;;;;;;24.73;18.83;;;;;;;4.85;100.00;98450.72;5007119;28;20179;-75
2020/12/29 18:35:16;;;;;;;24.97;17.33;;;;;;;4.87;100.00;98448.53;5034739;28;20692;-77
2020/12/29 18:37:42;;;;;;;22.83;17.23;;;;;;;5.00;100.00;98454.81;5014590;28;20192;-75
2020/12/29 18:40:07;;;;;;;24.80;18.03;;;;;;;4.93;99.98;98450.06;5032569;28;20215;-76
2020/12/29 18:42:35;;;;;;;23.80;18.50;;;;;;;4.93;100.00;98460.81;5001436;28;20206;-76
2020/12/29 18:45:04;;;;;;;25.33;18.33;;;;;;;5.15;98.67;98464.56;5018145;28;20184;-73
2020/12/29 18:47:30;;;;;;;23.33;18.03;;;;;;;5.02;99.21;98479.53;4998668;28;20222;-74
2020/12/29 18:49:55;;;;;;;22.50;16.73;;;;;;;5.03;98.33;98469.56;5015724;28;20201;-75
2020/12/29 18:52:21;;;;;;;23.47;17.87;;;;;;;4.90;99.05;98469.47;5015321;28;20215;-74
2020/12/29 18:54:46;;;;;;;23.83;17.60;;;;;;;4.97;99.10;98475.31;5015625;28;20187;-75
2020/12/29 18:57:14;;;;;;;24.00;18.03;;;;;;;5.01;99.00;98482.50;5032379;28;20728;-74
2020/12/29 18:59:40;;;;;;;25.43;17.60;;;;;;;4.98;97.95;98488.44;4981620;28;20309;-74
2020/12/29 19:02:10;;;;;;;25.10;18.20;;;;;;;5.01;98.54;98488.66;4993925;28;20763;-74
2020/12/29 19:04:36;;;;;;;23.10;17.97;;;;;;;5.00;98.19;98488.97;5014383;28;20246;-74
2020/12/29 19:07:03;;;;;;;24.73;18.47;;;;;;;5.06;97.59;98485.13;4982266;28;20232;-74
2020/12/29 19:09:31;;;;;;;24.30;18.40;;;;;;;5.11;97.39;98493.09;5034511;28;20257;-74
2020/12/29 19:11:59;;;;;;;25.47;18.60;;;;;;;5.14;97.25;98498.72;5016416;28;20634;-74
2020/12/29 19:14:25;;;;;;;24.17;18.60;;;;;;;5.17;97.44;98497.34;5016816;28;20562;-73
2020/12/29 19:16:56;;;;;;;27.00;19.83;;;;;;;5.10;97.25;98511.13;4997114;28;20243;-76
2020/12/29 19:19:22;;;;;;;26.43;18.73;;;;;;;5.16;97.04;98506.50;4997403;28;20238;-73
2020/12/29 19:21:51;;;;;;;25.03;19.13;;;;;;;5.16;97.44;98517.25;5030152;28;20646;-74
2020/12/29 19:24:17;;;;;;;23.87;18.00;;;;;;;5.21;97.33;98504.53;5013876;28;20207;-73
2020/12/29 19:26:43;;;;;;;24.97;18.70;;;;;;;5.04;98.03;98520.38;4997019;28;20227;-74
2020/12/29 19:29:12;;;;;;;21.63;17.23;;;;;;;4.98;97.82;98526.91;5042459;28;20215;-73
2020/12/29 19:31:38;;;;;;;22.87;17.70;;;;;;;5.08;98.16;98518.69;5000712;28;20217;-74
2020/12/29 19:34:05;;;;;;;23.27;18.73;;;;;;;5.04;98.22;98525.75;5013974;28;20182;-74
2020/12/29 19:36:34;;;;;;;24.10;19.00;;;;;;;5.16;97.95;98536.09;5012913;28;20604;-74
2020/12/29 19:38:59;;;;;;;21.17;17.30;;;;;;;5.17;98.43;98537.69;5030239;28;20216;-74
2020/12/29 19:41:28;;;;;;;24.50;18.77;;;;;;;5.16;98.37;98544.94;4999265;28;20220;-73
2020/12/29 19:43:57;;;;;;;22.50;17.73;;;;;;;5.03;98.63;98540.28;5002120;28;20191;-73
2020/12/29 19:46:24;;;;;;;22.47;18.10;;;;;;;5.03;99.03;98540.28;5018383;28;20274;-74
2020/12/29 19:48:52;;;;;;;22.53;17.30;;;;;;;5.01;99.74;98537.06;5019650;28;20262;-74
2020/12/29 19:51:18;;;;;;;20.17;15.63;;;;;;;5.02;99.76;98537.91;5018293;28;20275;-74
2020/12/29 19:53:47;;;;;;;20.60;16.47;;;;;;;4.99;100.00;98539.25;5019770;28;20249;-74
2020/12/29 19:56:16;;;;;;;21.53;16.83;;;;;;;4.87;100.00;98538.09;5035059;28;20230;-74
2020/12/29 19:58:43;;;;;;;23.00;18.27;;;;;;;4.89;100.00;98538.59;5032511;28;20294;-74
2020/12/29 20:01:09;;;;;;;21.37;17.27;;;;;;;5.03;100.00;98539.47;5004561;28;20223;-74
2020/12/29 20:03:37;;;;;;;21.83;17.77;;;;;;;5.05;99.92;98548.88;5005882;28;20191;-74
2020/12/29 20:06:03;;;;;;;18.53;16.03;;;;;;;5.11;99.31;98547.72;5020974;28;20753;-74
2020/12/29 20:08:29;;;;;;;20.47;16.60;;;;;;;5.08;99.36;98556.34;5021727;28;20175;-74
2020/12/29 20:10:59;;;;;;;19.43;16.23;;;;;;;5.01;99.68;98573.94;5036144;28;20220;-73
2020/12/29 20:13:28;;;;;;;20.97;15.97;;;;;;;4.97;100.00;98574.81;5004271;28;20567;-73
2020/12/29 20:15:56;;;;;;;18.40;16.07;;;;;;;5.09;99.35;98576.81;5018790;28;20737;-73
2020/12/29 20:18:27;;;;;;;19.13;16.03;;;;;;;5.01;100.00;98574.72;5035717;28;20661;-74
2020/12/29 20:20:53;;;;;;;18.37;15.97;;;;;;;5.03;99.87;98572.53;5035202;28;20581;-74
2020/12/29 20:23:21;;;;;;;19.03;16.00;;;;;;;4.97;100.00;98579.09;5029021;28;20215;-74
2020/12/29 20:25:49;;;;;;;19.03;15.73;;;;;;;4.97;100.00;98581.78;5003550;28;20220;-74
2020/12/29 20:28:16;;;;;;;20.07;16.83;;;;;;;4.97;100.00;98589.84;5019999;28;20201;-74
2020/12/29 20:30:42;;;;;;;17.60;15.70;;;;;;;5.07;99.83;98584.34;5035572;28;20241;-74
2020/12/29 20:33:07;;;;;;;19.60;16.40;;;;;;;5.03;99.93;98588.69;5020009;28;20661;-74
2020/12/29 20:35:33;;;;;;;20.57;16.70;;;;;;;5.01;99.43;98585.47;5019075;28;20219;-74
2020/12/29 20:38:02;;;;;;;20.13;16.37;;;;;;;5.09;99.38;98590.25;5003301;28;20834;-73
2020/12/29 20:40:30;;;;;;;20.47;16.90;;;;;;;4.87;100.00;98593.72;4993927;28;20231;-74
2020/12/29 20:42:58;;;;;;;20.17;17.13;;;;;;;5.08;99.46;98594.00;4999931;28;20189;-74
2020/12/29 20:45:23;;;;;;;19.67;16.50;;;;;;;5.01;99.41;98596.25;4999257;28;20653;-74
2020/12/29 20:47:51;;;;;;;19.20;16.40;;;;;;;5.06;99.55;98593.50;5034121;28;20267;-76
2020/12/29 20:50:20;;;;;;;20.30;17.23;;;;;;;5.10;99.63;98597.22;5023298;28;20195;-74
2020/12/29 20:52:51;;;;;;;24.27;19.93;;;;;;;5.13;99.50;98602.03;5046116;28;20180;-74
2020/12/29 20:55:19;;;;;;;21.60;18.10;;;;;;;4.97;100.00;98604.41;5045206;28;20179;-74
2020/12/29 20:57:45;;;;;;;21.53;17.80;;;;;;;4.92;100.00;98602.53;5000975;28;20231;-74
2020/12/29 21:00:13;;;;;;;20.87;17.60;;;;;;;5.17;100.00;98605.75;5028851;28;20212;-74
2020/12/29 21:02:38;;;;;;;23.87;18.30;;;;;;;4.99;100.00;98605.69;5005258;28;20211;-74
2020/12/29 21:05:07;;;;;;;25.23;19.50;;;;;;;4.97;100.00;98610.56;4986671;28;20196;-74
2020/12/29 21:07:33;;;;;;;24.27;20.33;;;;;;;5.17;100.00;98600.38;4999807;28;20289;-74
2020/12/29 21:10:02;;;;;;;35.37;25.83;;;;;;;5.14;100.00;98600.94;5037527;28;20199;-74
2020/12/29 21:12:32;;;;;;;28.30;22.30;;;;;;;4.99;100.00;98611.88;5009979;28;20693;-74
2020/12/29 21:15:00;;;;;;;31.27;22.60;;;;;;;4.98;100.00;98625.59;4995836;28;20213;-74
2020/12/29 21:17:25;;;;;;;42.63;27.43;;;;;;;5.07;100.00;98616.63;5030784;28;20315;-74
2020/12/29 21:19:51;;;;;;;43.37;28.27;;;;;;;5.15;100.00;98623.28;5001284;28;20212;-74
2020/12/29 21:22:17;;;;;;;28.13;21.40;;;;;;;4.99;100.00;98629.91;5036328;28;20230;-74
2020/12/29 21:24:42;;;;;;;31.03;22.37;;;;;;;4.99;100.00;98625.31;5018710;28;20263;-72
2020/12/29 21:27:08;;;;;;;30.03;21.53;;;;;;;5.07;100.00;98631.94;5018133;28;20572;-72
2020/12/29 21:29:34;;;;;;;44.53;28.60;;;;;;;5.07;100.00;98640.03;4985960;28;20262;-72
2020/12/29 21:31:59;;;;;;;31.60;22.33;;;;;;;5.10;100.00;98645.63;4998495;28;20231;-73
2020/12/29 21:34:25;;;;;;;30.07;22.50;;;;;;;5.06;100.00;98641.91;5015326;28;20271;-73
2020/12/29 21:36:52;;;;;;;37.27;24.83;;;;;;;5.18;100.00;98650.41;4998483;28;20220;-73
2020/12/29 21:39:20;;;;;;;29.27;21.93;;;;;;;5.12;100.00;98648.84;4983893;28;20327;-73
2020/12/29 21:41:48;;;;;;;22.07;18.50;;;;;;;5.06;100.00;98651.88;5014117;28;20220;-74
2020/12/29 21:44:13;;;;;;;22.57;18.33;;;;;;;5.09;100.00;98662.88;5006977;28;20658;-73
2020/12/29 21:46:40;;;;;;;21.30;17.83;;;;;;;5.14;100.00;98660.09;5010078;28;20263;-73
2020/12/29 21:49:06;;;;;;;21.37;17.70;;;;;;;5.15;100.00;98660.94;4998797;28;20579;-72
2020/12/29 21:51:32;;;;;;;20.57;17.63;;;;;;;5.08;100.00;98665.84;5011255;28;20273;-74
2020/12/29 21:54:02;;;;;;;22.50;18.10;;;;;;;5.06;100.00;98666.13;4986623;28;20192;-73
2020/12/29 21:56:28;;;;;;;22.97;19.07;;;;;;;5.12;100.00;98667.66;5003049;28;20239;-73
2020/12/29 21:58:54;;;;;;;20.93;17.40;;;;;;;5.14;100.00;98680.84;5006437;28;20211;-73
2020/12/29 22:01:20;;;;;;;21.60;18.17;;;;;;;5.10;100.00;98674.44;5034581;28;20303;-73
2020/12/29 22:03:48;;;;;;;22.93;18.30;;;;;;;5.00;99.92;98675.34;5025665;28;20188;-74
2020/12/29 22:06:15;;;;;;;20.73;16.77;;;;;;;5.12;99.85;98667.66;5009496;28;20275;-73
2020/12/29 22:08:44;;;;;;;20.83;16.43;;;;;;;5.02;99.72;98675.84;5002642;28;20213;-73
2020/12/29 22:11:19;;;;;;;20.60;17.33;;;;;;;5.05;99.17;98682.53;5017626;28;20273;-73
2020/12/29 22:13:46;;;;;;;21.43;16.57;;;;;;;5.12;99.40;98681.13;5017656;28;20274;-73
2020/12/29 22:16:13;;;;;;;19.37;16.87;;;;;;;5.08;100.00;98682.78;5016792;28;20220;-73
2020/12/29 22:18:41;;;;;;;20.47;18.33;;;;;;;5.07;100.00;98691.13;5016204;28;20712;-73
2020/12/29 22:21:07;;;;;;;20.83;16.90;;;;;;;4.97;100.00;98691.25;5020272;28;20219;-73
2020/12/29 22:23:33;;;;;;;20.30;16.80;;;;;;;5.06;99.40;98700.31;5024512;28;20183;-73
2020/12/29 22:26:01;;;;;;;20.57;16.90;;;;;;;5.11;99.62;98705.59;5000238;28;20219;-74
2020/12/29 22:28:29;;;;;;;19.07;16.63;;;;;;;5.03;100.00;98701.66;5032278;28;20184;-73
2020/12/29 22:30:54;;;;;;;20.30;16.43;;;;;;;5.07;99.38;98697.34;4997889;28;20219;-75
2020/12/29 22:33:20;;;;;;;20.63;16.70;;;;;;;4.98;99.82;98704.41;5024823;28;20683;-73
2020/12/29 22:35:48;;;;;;;21.03;16.57;;;;;;;5.10;99.33;98707.50;4999307;28;20290;-73
2020/12/29 22:38:17;;;;;;;19.30;16.07;;;;;;;5.11;99.11;98709.13;5024367;28;20180;-72
2020/12/29 22:40:45;;;;;;;17.67;14.97;;;;;;;5.08;98.62;98719.66;5016579;28;20227;-73
2020/12/29 22:43:13;;;;;;;18.23;15.53;;;;;;;5.10;98.15;98718.25;5015211;28;20897;-74
2020/12/29 22:45:40;;;;;;;19.33;15.20;;;;;;;5.19;97.99;98726.53;4996634;28;20714;-73